sensor_id;sensor_type;location;lat;lon;timestamp;temperature;humidity
7399;DHT22;3740;50.700;7.184;2024-02-21T00:01:39;10.30;99.90
7399;DHT22;3740;50.700;7.184;2024-02-21T00:04:04;10.20;99.90
7399;DHT22;3740;50.700;7.184;2024-02-21T00:06:30;10.20;99.90
7399;DHT22;3740;50.700;7.184;2024-02-21T00:08:55;10.20;99.90
7399;DHT22;3740;50.700;7.184;2024-02-21T00:11:21;10.20;99.90
7399;DHT22;3740;50.700;7.184;2024-02-21T00:13:46;10.20;99.90
7399;DHT22;3740;50.700;7.184;2024-02-21T00:16:12;10.20;99.90
7399;DHT22;3740;50.700;7.184;2024-02-21T00:18:38;10.10;99.90
7399;DHT22;3740;50.700;7.184;2024-02-21T00:21:04;10.20;99.90
7399;DHT22;3740;50.700;7.184;2024-02-21T00:23:29;10.10;99.90
7399;DHT22;3740;50.700;7.184;2024-02-21T00:25:55;10.20;99.90
7399;DHT22;3740;50.700;7.184;2024-02-21T00:28:20;10.20;99.90
7399;DHT22;3740;50.700;7.184;2024-02-21T00:30:46;10.20;99.90
7399;DHT22;3740;50.700;7.184;2024-02-21T00:33:13;10.20;99.90
7399;DHT22;3740;50.700;7.184;2024-02-21T00:35:39;10.20;99.90
7399;DHT22;3740;50.700;7.184;2024-02-21T00:38:04;10.20;99.90
7399;DHT22;3740;50.700;7.184;2024-02-21T00:40:30;10.30;99.90
7399;DHT22;3740;50.700;7.184;2024-02-21T00:42:56;10.30;99.90
7399;DHT22;3740;50.700;7.184;2024-02-21T00:45:21;10.30;99.90
7399;DHT22;3740;50.700;7.184;2024-02-21T00:47:47;10.30;99.90
7399;DHT22;3740;50.700;7.184;2024-02-21T00:50:12;10.20;99.90
7399;DHT22;3740;50.700;7.184;2024-02-21T00:52:38;10.20;99.90
7399;DHT22;3740;50.700;7.184;2024-02-21T00:55:04;10.20;99.90
7399;DHT22;3740;50.700;7.184;2024-02-21T00:57:30;10.20;99.90
7399;DHT22;3740;50.700;7.184;2024-02-21T00:59:56;10.20;99.90
7399;DHT22;3740;50.700;7.184;2024-02-21T01:02:21;10.20;99.90
7399;DHT22;3740;50.700;7.184;2024-02-21T01:04:47;10.30;99.90
7399;DHT22;3740;50.700;7.184;2024-02-21T01:07:12;10.20;99.90
7399;DHT22;3740;50.700;7.184;2024-02-21T01:09:38;10.20;99.90
7399;DHT22;3740;50.700;7.184;2024-02-21T01:12:04;10.20;99.90
7399;DHT22;3740;50.700;7.184;2024-02-21T01:14:29;10.10;99.90
7399;DHT22;3740;50.700;7.184;2024-02-21T01:16:55;10.10;99.90
7399;DHT22;3740;50.700;7.184;2024-02-21T01:19:20;10.10;99.90
7399;DHT22;3740;50.700;7.184;2024-02-21T01:21:46;10.20;99.90
7399;DHT22;3740;50.700;7.184;2024-02-21T01:24:11;10.20;99.90
7399;DHT22;3740;50.700;7.184;2024-02-21T01:26:37;10.20;99.90
7399;DHT22;3740;50.700;7.184;2024-02-21T01:29:02;10.20;99.90
7399;DHT22;3740;50.700;7.184;2024-02-21T01:31:28;10.20;99.90
7399;DHT22;3740;50.700;7.184;2024-02-21T01:33:53;10.20;99.90
7399;DHT22;3740;50.700;7.184;2024-02-21T01:36:19;10.10;99.90
7399;DHT22;3740;50.700;7.184;2024-02-21T01:38:44;10.10;99.90
7399;DHT22;3740;50.700;7.184;2024-02-21T01:41:11;10.10;99.90
7399;DHT22;3740;50.700;7.184;2024-02-21T01:43:36;10.10;99.90
7399;DHT22;3740;50.700;7.184;2024-02-21T01:46:02;10.20;99.90
7399;DHT22;3740;50.700;7.184;2024-02-21T01:48:27;10.20;99.90
7399;DHT22;3740;50.700;7.184;2024-02-21T01:50:54;10.10;99.90
7399;DHT22;3740;50.700;7.184;2024-02-21T01:53:27;10.10;99.90
7399;DHT22;3740;50.700;7.184;2024-02-21T01:55:54;10.00;99.90
7399;DHT22;3740;50.700;7.184;2024-02-21T01:58:21;10.10;99.90
7399;DHT22;3740;50.700;7.184;2024-02-21T02:00:47;10.10;99.90
7399;DHT22;3740;50.700;7.184;2024-02-21T02:03:13;10.00;99.90
7399;DHT22;3740;50.700;7.184;2024-02-21T02:05:46;9.90;99.90
7399;DHT22;3740;50.700;7.184;2024-02-21T02:08:14;10.00;99.90
7399;DHT22;3740;50.700;7.184;2024-02-21T02:10:40;10.10;99.90
7399;DHT22;3740;50.700;7.184;2024-02-21T02:13:06;10.00;99.90
7399;DHT22;3740;50.700;7.184;2024-02-21T02:15:46;9.90;99.90
7399;DHT22;3740;50.700;7.184;2024-02-21T02:18:14;9.90;99.90
7399;DHT22;3740;50.700;7.184;2024-02-21T02:20:40;9.90;99.90
7399;DHT22;3740;50.700;7.184;2024-02-21T02:25:52;9.90;99.90
7399;DHT22;3740;50.700;7.184;2024-02-21T02:28:18;9.90;99.90
7399;DHT22;3740;50.700;7.184;2024-02-21T02:30:44;9.90;99.90
7399;DHT22;3740;50.700;7.184;2024-02-21T02:33:10;10.00;99.90
7399;DHT22;3740;50.700;7.184;2024-02-21T02:35:36;9.90;99.90
7399;DHT22;3740;50.700;7.184;2024-02-21T02:38:02;9.90;99.90
7399;DHT22;3740;50.700;7.184;2024-02-21T02:40:27;9.90;99.90
7399;DHT22;3740;50.700;7.184;2024-02-21T02:42:53;10.00;99.90
7399;DHT22;3740;50.700;7.184;2024-02-21T02:45:21;9.90;99.90
7399;DHT22;3740;50.700;7.184;2024-02-21T02:47:52;9.90;99.90
7399;DHT22;3740;50.700;7.184;2024-02-21T02:50:19;9.90;99.90
7399;DHT22;3740;50.700;7.184;2024-02-21T02:52:44;9.90;99.90
7399;DHT22;3740;50.700;7.184;2024-02-21T02:55:10;10.00;99.90
7399;DHT22;3740;50.700;7.184;2024-02-21T02:57:35;9.90;99.90
7399;DHT22;3740;50.700;7.184;2024-02-21T03:00:01;9.90;99.90
7399;DHT22;3740;50.700;7.184;2024-02-21T03:02:26;9.90;99.90
7399;DHT22;3740;50.700;7.184;2024-02-21T03:04:52;9.90;99.90
7399;DHT22;3740;50.700;7.184;2024-02-21T03:07:20;9.80;99.90
7399;DHT22;3740;50.700;7.184;2024-02-21T03:09:45;9.80;99.90
7399;DHT22;3740;50.700;7.184;2024-02-21T03:12:11;9.90;99.90
7399;DHT22;3740;50.700;7.184;2024-02-21T03:14:37;9.80;99.90
7399;DHT22;3740;50.700;7.184;2024-02-21T03:17:03;9.80;99.90
7399;DHT22;3740;50.700;7.184;2024-02-21T03:19:29;9.80;99.90
7399;DHT22;3740;50.700;7.184;2024-02-21T03:21:54;9.80;99.90
7399;DHT22;3740;50.700;7.184;2024-02-21T03:24:20;9.80;99.90
7399;DHT22;3740;50.700;7.184;2024-02-21T03:26:46;9.80;99.90
7399;DHT22;3740;50.700;7.184;2024-02-21T03:29:16;9.80;99.90
7399;DHT22;3740;50.700;7.184;2024-02-21T03:31:42;9.80;99.90
7399;DHT22;3740;50.700;7.184;2024-02-21T03:34:08;9.90;99.90
7399;DHT22;3740;50.700;7.184;2024-02-21T03:36:33;9.90;99.90
7399;DHT22;3740;50.700;7.184;2024-02-21T03:38:59;9.90;99.90
7399;DHT22;3740;50.700;7.184;2024-02-21T03:41:24;9.80;99.90
7399;DHT22;3740;50.700;7.184;2024-02-21T03:43:50;9.80;99.90
7399;DHT22;3740;50.700;7.184;2024-02-21T03:46:15;9.80;99.90
7399;DHT22;3740;50.700;7.184;2024-02-21T03:48:41;9.80;99.90
7399;DHT22;3740;50.700;7.184;2024-02-21T03:51:08;9.70;99.90
7399;DHT22;3740;50.700;7.184;2024-02-21T03:53:33;9.70;99.90
7399;DHT22;3740;50.700;7.184;2024-02-21T03:56:02;9.80;99.90
7399;DHT22;3740;50.700;7.184;2024-02-21T03:58:30;9.70;99.90
7399;DHT22;3740;50.700;7.184;2024-02-21T04:00:55;9.80;99.90
7399;DHT22;3740;50.700;7.184;2024-02-21T04:03:21;9.80;99.90
7399;DHT22;3740;50.700;7.184;2024-02-21T04:05:46;9.80;99.90
7399;DHT22;3740;50.700;7.184;2024-02-21T04:08:12;9.80;99.90
7399;DHT22;3740;50.700;7.184;2024-02-21T04:10:38;9.80;99.90
7399;DHT22;3740;50.700;7.184;2024-02-21T04:13:05;9.80;99.90
7399;DHT22;3740;50.700;7.184;2024-02-21T04:15:31;9.80;99.90
7399;DHT22;3740;50.700;7.184;2024-02-21T04:17:57;9.80;99.90
7399;DHT22;3740;50.700;7.184;2024-02-21T04:20:22;9.80;99.90
7399;DHT22;3740;50.700;7.184;2024-02-21T04:22:48;9.80;99.90
7399;DHT22;3740;50.700;7.184;2024-02-21T04:25:14;9.90;99.90
7399;DHT22;3740;50.700;7.184;2024-02-21T04:27:40;9.90;99.90
7399;DHT22;3740;50.700;7.184;2024-02-21T04:30:06;9.90;99.90
7399;DHT22;3740;50.700;7.184;2024-02-21T04:32:32;9.90;99.90
7399;DHT22;3740;50.700;7.184;2024-02-21T04:34:58;9.90;99.90
7399;DHT22;3740;50.700;7.184;2024-02-21T04:37:24;9.90;99.90
7399;DHT22;3740;50.700;7.184;2024-02-21T04:39:50;9.80;99.90
7399;DHT22;3740;50.700;7.184;2024-02-21T04:42:16;9.80;99.90
7399;DHT22;3740;50.700;7.184;2024-02-21T04:44:41;9.90;99.90
7399;DHT22;3740;50.700;7.184;2024-02-21T04:47:07;9.90;99.90
7399;DHT22;3740;50.700;7.184;2024-02-21T04:49:33;9.90;99.90
7399;DHT22;3740;50.700;7.184;2024-02-21T04:51:59;9.90;99.90
7399;DHT22;3740;50.700;7.184;2024-02-21T04:54:24;9.90;99.90
7399;DHT22;3740;50.700;7.184;2024-02-21T04:56:51;9.90;99.90
7399;DHT22;3740;50.700;7.184;2024-02-21T04:59:16;9.90;99.90
7399;DHT22;3740;50.700;7.184;2024-02-21T05:01:42;9.90;99.90
7399;DHT22;3740;50.700;7.184;2024-02-21T05:04:08;9.80;99.90
7399;DHT22;3740;50.700;7.184;2024-02-21T05:06:40;9.80;99.90
7399;DHT22;3740;50.700;7.184;2024-02-21T05:09:07;9.80;99.90
7399;DHT22;3740;50.700;7.184;2024-02-21T05:11:37;9.80;99.90
7399;DHT22;3740;50.700;7.184;2024-02-21T05:14:03;9.80;99.90
7399;DHT22;3740;50.700;7.184;2024-02-21T05:16:29;9.80;99.90
7399;DHT22;3740;50.700;7.184;2024-02-21T05:18:55;9.70;99.90
7399;DHT22;3740;50.700;7.184;2024-02-21T05:21:22;9.70;99.90
7399;DHT22;3740;50.700;7.184;2024-02-21T05:23:49;9.80;99.90
7399;DHT22;3740;50.700;7.184;2024-02-21T05:26:25;9.80;99.90
7399;DHT22;3740;50.700;7.184;2024-02-21T05:28:51;9.80;99.90
7399;DHT22;3740;50.700;7.184;2024-02-21T05:31:17;9.80;99.90
7399;DHT22;3740;50.700;7.184;2024-02-21T05:33:44;9.80;99.90
7399;DHT22;3740;50.700;7.184;2024-02-21T05:36:09;9.90;99.90
7399;DHT22;3740;50.700;7.184;2024-02-21T05:38:35;9.90;99.90
7399;DHT22;3740;50.700;7.184;2024-02-21T05:41:01;9.80;99.90
7399;DHT22;3740;50.700;7.184;2024-02-21T05:43:26;9.90;99.90
7399;DHT22;3740;50.700;7.184;2024-02-21T05:45:52;9.90;99.90
7399;DHT22;3740;50.700;7.184;2024-02-21T05:48:18;9.90;99.90
7399;DHT22;3740;50.700;7.184;2024-02-21T05:50:43;9.90;99.90
7399;DHT22;3740;50.700;7.184;2024-02-21T05:53:09;9.80;99.90
7399;DHT22;3740;50.700;7.184;2024-02-21T05:55:35;9.80;99.90
7399;DHT22;3740;50.700;7.184;2024-02-21T05:58:01;9.80;99.90
7399;DHT22;3740;50.700;7.184;2024-02-21T06:00:27;9.80;99.90
7399;DHT22;3740;50.700;7.184;2024-02-21T06:02:53;9.80;99.90
7399;DHT22;3740;50.700;7.184;2024-02-21T06:05:18;9.80;99.90
7399;DHT22;3740;50.700;7.184;2024-02-21T06:07:44;9.80;99.90
7399;DHT22;3740;50.700;7.184;2024-02-21T06:10:10;9.80;99.90
7399;DHT22;3740;50.700;7.184;2024-02-21T06:12:35;9.80;99.90
7399;DHT22;3740;50.700;7.184;2024-02-21T06:15:01;9.80;99.90
7399;DHT22;3740;50.700;7.184;2024-02-21T06:17:26;9.90;99.90
7399;DHT22;3740;50.700;7.184;2024-02-21T06:19:52;9.80;99.90
7399;DHT22;3740;50.700;7.184;2024-02-21T06:22:17;9.80;99.90
7399;DHT22;3740;50.700;7.184;2024-02-21T06:24:43;9.80;99.90
7399;DHT22;3740;50.700;7.184;2024-02-21T06:27:09;9.80;99.90
7399;DHT22;3740;50.700;7.184;2024-02-21T06:29:36;9.80;99.90
7399;DHT22;3740;50.700;7.184;2024-02-21T06:32:01;9.80;99.90
7399;DHT22;3740;50.700;7.184;2024-02-21T06:34:27;9.80;99.90
7399;DHT22;3740;50.700;7.184;2024-02-21T06:36:53;9.80;99.90
7399;DHT22;3740;50.700;7.184;2024-02-21T06:39:18;9.80;99.90
7399;DHT22;3740;50.700;7.184;2024-02-21T06:41:44;9.90;99.90
7399;DHT22;3740;50.700;7.184;2024-02-21T06:44:09;9.90;99.90
7399;DHT22;3740;50.700;7.184;2024-02-21T06:46:35;9.90;99.90
7399;DHT22;3740;50.700;7.184;2024-02-21T06:49:01;9.80;99.90
7399;DHT22;3740;50.700;7.184;2024-02-21T06:51:28;9.80;99.90
7399;DHT22;3740;50.700;7.184;2024-02-21T06:53:54;9.80;99.90
7399;DHT22;3740;50.700;7.184;2024-02-21T06:56:20;9.80;99.90
7399;DHT22;3740;50.700;7.184;2024-02-21T06:58:46;9.80;99.90
7399;DHT22;3740;50.700;7.184;2024-02-21T07:01:11;9.70;99.90
7399;DHT22;3740;50.700;7.184;2024-02-21T07:03:37;9.80;99.90
7399;DHT22;3740;50.700;7.184;2024-02-21T07:06:03;9.80;99.90
7399;DHT22;3740;50.700;7.184;2024-02-21T07:08:29;9.70;99.90
7399;DHT22;3740;50.700;7.184;2024-02-21T07:10:54;9.70;99.90
7399;DHT22;3740;50.700;7.184;2024-02-21T07:13:20;9.70;99.90
7399;DHT22;3740;50.700;7.184;2024-02-21T07:15:47;9.70;99.90
7399;DHT22;3740;50.700;7.184;2024-02-21T07:18:13;9.70;99.90
7399;DHT22;3740;50.700;7.184;2024-02-21T07:20:38;9.70;99.90
7399;DHT22;3740;50.700;7.184;2024-02-21T07:23:06;9.70;99.90
7399;DHT22;3740;50.700;7.184;2024-02-21T07:25:32;9.70;99.90
7399;DHT22;3740;50.700;7.184;2024-02-21T07:27:58;9.70;99.90
7399;DHT22;3740;50.700;7.184;2024-02-21T07:30:23;9.80;99.90
7399;DHT22;3740;50.700;7.184;2024-02-21T07:32:49;9.80;99.90
7399;DHT22;3740;50.700;7.184;2024-02-21T07:35:16;9.80;99.90
7399;DHT22;3740;50.700;7.184;2024-02-21T07:37:41;9.80;99.90
7399;DHT22;3740;50.700;7.184;2024-02-21T07:40:12;9.80;99.90
7399;DHT22;3740;50.700;7.184;2024-02-21T07:42:38;9.80;99.90
7399;DHT22;3740;50.700;7.184;2024-02-21T07:45:04;9.70;99.90
7399;DHT22;3740;50.700;7.184;2024-02-21T07:47:29;9.70;99.90
7399;DHT22;3740;50.700;7.184;2024-02-21T07:49:55;9.80;99.90
7399;DHT22;3740;50.700;7.184;2024-02-21T07:52:20;9.80;99.90
7399;DHT22;3740;50.700;7.184;2024-02-21T07:54:46;9.90;99.90
7399;DHT22;3740;50.700;7.184;2024-02-21T07:57:12;9.90;99.90
7399;DHT22;3740;50.700;7.184;2024-02-21T07:59:37;9.90;99.90
7399;DHT22;3740;50.700;7.184;2024-02-21T08:02:03;9.90;99.90
7399;DHT22;3740;50.700;7.184;2024-02-21T08:04:32;9.90;99.90
7399;DHT22;3740;50.700;7.184;2024-02-21T08:06:57;10.00;99.90
7399;DHT22;3740;50.700;7.184;2024-02-21T08:09:26;10.00;99.90
7399;DHT22;3740;50.700;7.184;2024-02-21T08:11:53;10.00;99.90
7399;DHT22;3740;50.700;7.184;2024-02-21T08:14:19;9.90;99.90
7399;DHT22;3740;50.700;7.184;2024-02-21T08:16:44;9.90;99.90
7399;DHT22;3740;50.700;7.184;2024-02-21T08:19:10;10.00;99.90
7399;DHT22;3740;50.700;7.184;2024-02-21T08:21:36;10.10;99.90
7399;DHT22;3740;50.700;7.184;2024-02-21T08:24:01;10.10;99.90
7399;DHT22;3740;50.700;7.184;2024-02-21T08:26:27;10.00;99.90
7399;DHT22;3740;50.700;7.184;2024-02-21T08:28:55;10.00;99.90
7399;DHT22;3740;50.700;7.184;2024-02-21T08:31:24;10.10;99.90
7399;DHT22;3740;50.700;7.184;2024-02-21T08:33:53;10.10;99.90
7399;DHT22;3740;50.700;7.184;2024-02-21T08:36:19;10.10;99.90
7399;DHT22;3740;50.700;7.184;2024-02-21T08:38:45;10.10;99.90
7399;DHT22;3740;50.700;7.184;2024-02-21T08:41:11;10.10;99.90
7399;DHT22;3740;50.700;7.184;2024-02-21T08:43:37;10.20;99.90
7399;DHT22;3740;50.700;7.184;2024-02-21T08:46:03;10.20;99.90
7399;DHT22;3740;50.700;7.184;2024-02-21T08:48:29;10.30;99.90
7399;DHT22;3740;50.700;7.184;2024-02-21T08:50:54;10.20;99.90
7399;DHT22;3740;50.700;7.184;2024-02-21T08:53:20;10.30;99.90
7399;DHT22;3740;50.700;7.184;2024-02-21T08:55:46;10.20;99.90
7399;DHT22;3740;50.700;7.184;2024-02-21T08:58:11;10.20;99.90
7399;DHT22;3740;50.700;7.184;2024-02-21T09:00:37;10.30;99.90
7399;DHT22;3740;50.700;7.184;2024-02-21T09:03:03;10.30;99.90
7399;DHT22;3740;50.700;7.184;2024-02-21T09:05:28;10.30;99.90
7399;DHT22;3740;50.700;7.184;2024-02-21T09:07:54;10.20;99.90
7399;DHT22;3740;50.700;7.184;2024-02-21T09:10:20;10.30;99.90
7399;DHT22;3740;50.700;7.184;2024-02-21T09:12:46;10.30;99.90
7399;DHT22;3740;50.700;7.184;2024-02-21T09:15:12;10.20;99.90
7399;DHT22;3740;50.700;7.184;2024-02-21T09:17:38;10.40;99.90
7399;DHT22;3740;50.700;7.184;2024-02-21T09:20:05;10.50;99.90
7399;DHT22;3740;50.700;7.184;2024-02-21T09:22:31;10.70;99.90
7399;DHT22;3740;50.700;7.184;2024-02-21T09:25:00;10.80;99.90
7399;DHT22;3740;50.700;7.184;2024-02-21T09:27:25;10.90;99.90
7399;DHT22;3740;50.700;7.184;2024-02-21T09:29:51;11.00;99.90
7399;DHT22;3740;50.700;7.184;2024-02-21T09:32:18;11.00;99.90
7399;DHT22;3740;50.700;7.184;2024-02-21T09:34:44;11.10;99.90
7399;DHT22;3740;50.700;7.184;2024-02-21T09:37:10;11.20;99.90
7399;DHT22;3740;50.700;7.184;2024-02-21T09:39:36;11.10;99.90
7399;DHT22;3740;50.700;7.184;2024-02-21T09:42:05;11.10;99.90
7399;DHT22;3740;50.700;7.184;2024-02-21T09:44:38;11.10;99.90
7399;DHT22;3740;50.700;7.184;2024-02-21T09:47:07;11.20;99.90
7399;DHT22;3740;50.700;7.184;2024-02-21T09:49:35;11.20;99.90
7399;DHT22;3740;50.700;7.184;2024-02-21T09:52:05;11.30;99.90
7399;DHT22;3740;50.700;7.184;2024-02-21T09:54:35;11.30;99.90
7399;DHT22;3740;50.700;7.184;2024-02-21T09:57:02;11.30;99.90
7399;DHT22;3740;50.700;7.184;2024-02-21T09:59:30;11.40;99.90
7399;DHT22;3740;50.700;7.184;2024-02-21T10:01:56;11.50;99.90
7399;DHT22;3740;50.700;7.184;2024-02-21T10:04:21;11.60;99.90
7399;DHT22;3740;50.700;7.184;2024-02-21T10:06:47;11.60;99.90
7399;DHT22;3740;50.700;7.184;2024-02-21T10:09:27;11.70;99.90
7399;DHT22;3740;50.700;7.184;2024-02-21T10:11:56;11.90;99.90
7399;DHT22;3740;50.700;7.184;2024-02-21T10:14:22;12.10;99.90
7399;DHT22;3740;50.700;7.184;2024-02-21T10:16:48;12.20;99.90
7399;DHT22;3740;50.700;7.184;2024-02-21T10:19:20;12.20;99.90
7399;DHT22;3740;50.700;7.184;2024-02-21T10:22:00;12.50;99.90
7399;DHT22;3740;50.700;7.184;2024-02-21T10:24:27;13.00;99.90
7399;DHT22;3740;50.700;7.184;2024-02-21T10:27:05;13.40;99.90
7399;DHT22;3740;50.700;7.184;2024-02-21T10:29:34;13.90;99.90
7399;DHT22;3740;50.700;7.184;2024-02-21T10:32:13;13.80;99.90
7399;DHT22;3740;50.700;7.184;2024-02-21T10:34:40;13.70;99.90
7399;DHT22;3740;50.700;7.184;2024-02-21T10:37:10;13.50;99.90
7399;DHT22;3740;50.700;7.184;2024-02-21T10:39:40;13.40;99.90
7399;DHT22;3740;50.700;7.184;2024-02-21T10:42:06;13.40;99.90
7399;DHT22;3740;50.700;7.184;2024-02-21T10:44:36;13.30;99.90
7399;DHT22;3740;50.700;7.184;2024-02-21T10:47:09;13.50;99.90
7399;DHT22;3740;50.700;7.184;2024-02-21T10:49:42;13.70;99.90
7399;DHT22;3740;50.700;7.184;2024-02-21T10:52:14;13.80;99.90
7399;DHT22;3740;50.700;7.184;2024-02-21T10:54:59;13.90;99.90
7399;DHT22;3740;50.700;7.184;2024-02-21T10:57:26;14.00;99.90
7399;DHT22;3740;50.700;7.184;2024-02-21T10:59:54;14.30;99.90
7399;DHT22;3740;50.700;7.184;2024-02-21T11:02:20;14.30;99.90
7399;DHT22;3740;50.700;7.184;2024-02-21T11:04:46;14.20;99.90
7399;DHT22;3740;50.700;7.184;2024-02-21T11:07:14;14.00;99.90
7399;DHT22;3740;50.700;7.184;2024-02-21T11:09:39;13.80;99.90
7399;DHT22;3740;50.700;7.184;2024-02-21T11:12:06;13.70;99.90
7399;DHT22;3740;50.700;7.184;2024-02-21T11:14:32;13.90;99.90
7399;DHT22;3740;50.700;7.184;2024-02-21T11:17:18;13.80;99.90
7399;DHT22;3740;50.700;7.184;2024-02-21T11:19:44;14.00;99.90
7399;DHT22;3740;50.700;7.184;2024-02-21T11:22:20;14.40;99.90
7399;DHT22;3740;50.700;7.184;2024-02-21T11:24:50;14.60;99.90
7399;DHT22;3740;50.700;7.184;2024-02-21T11:27:20;14.60;99.90
7399;DHT22;3740;50.700;7.184;2024-02-21T11:29:47;14.60;99.90
7399;DHT22;3740;50.700;7.184;2024-02-21T11:32:19;14.60;99.90
7399;DHT22;3740;50.700;7.184;2024-02-21T11:35:02;14.60;99.90
7399;DHT22;3740;50.700;7.184;2024-02-21T11:37:33;14.70;99.90
7399;DHT22;3740;50.700;7.184;2024-02-21T11:39:59;14.60;99.90
7399;DHT22;3740;50.700;7.184;2024-02-21T11:42:29;14.50;99.90
7399;DHT22;3740;50.700;7.184;2024-02-21T11:44:56;14.30;99.90
7399;DHT22;3740;50.700;7.184;2024-02-21T11:47:25;14.20;99.90
7399;DHT22;3740;50.700;7.184;2024-02-21T11:49:50;14.30;99.90
7399;DHT22;3740;50.700;7.184;2024-02-21T11:52:23;14.40;99.90
7399;DHT22;3740;50.700;7.184;2024-02-21T11:54:54;14.10;99.90
7399;DHT22;3740;50.700;7.184;2024-02-21T11:57:21;13.90;99.90
7399;DHT22;3740;50.700;7.184;2024-02-21T11:59:47;13.70;99.90
7399;DHT22;3740;50.700;7.184;2024-02-21T12:02:14;13.50;99.90
7399;DHT22;3740;50.700;7.184;2024-02-21T12:04:39;13.60;99.90
7399;DHT22;3740;50.700;7.184;2024-02-21T12:07:05;13.60;99.90
7399;DHT22;3740;50.700;7.184;2024-02-21T12:09:31;13.30;99.90
7399;DHT22;3740;50.700;7.184;2024-02-21T12:11:58;13.10;99.90
7399;DHT22;3740;50.700;7.184;2024-02-21T12:14:25;13.10;99.90
7399;DHT22;3740;50.700;7.184;2024-02-21T12:16:51;13.10;99.90
7399;DHT22;3740;50.700;7.184;2024-02-21T12:19:17;13.00;99.90
7399;DHT22;3740;50.700;7.184;2024-02-21T12:21:43;12.90;99.90
7399;DHT22;3740;50.700;7.184;2024-02-21T12:24:20;13.00;99.90
7399;DHT22;3740;50.700;7.184;2024-02-21T12:26:46;13.00;99.90
7399;DHT22;3740;50.700;7.184;2024-02-21T12:29:12;13.10;99.90
7399;DHT22;3740;50.700;7.184;2024-02-21T12:31:38;13.10;99.90
7399;DHT22;3740;50.700;7.184;2024-02-21T12:34:04;13.10;99.90
7399;DHT22;3740;50.700;7.184;2024-02-21T12:36:31;13.20;99.90
7399;DHT22;3740;50.700;7.184;2024-02-21T12:38:56;13.10;99.90
7399;DHT22;3740;50.700;7.184;2024-02-21T12:41:22;13.00;99.90
7399;DHT22;3740;50.700;7.184;2024-02-21T12:43:47;12.90;99.90
7399;DHT22;3740;50.700;7.184;2024-02-21T12:46:13;12.80;99.90
7399;DHT22;3740;50.700;7.184;2024-02-21T12:48:39;12.80;99.90
7399;DHT22;3740;50.700;7.184;2024-02-21T12:51:05;12.70;99.90
7399;DHT22;3740;50.700;7.184;2024-02-21T12:53:31;12.80;99.90
7399;DHT22;3740;50.700;7.184;2024-02-21T12:55:56;12.70;99.90
7399;DHT22;3740;50.700;7.184;2024-02-21T12:58:22;12.70;99.90
7399;DHT22;3740;50.700;7.184;2024-02-21T13:00:47;12.60;99.90
7399;DHT22;3740;50.700;7.184;2024-02-21T13:03:14;12.50;99.90
7399;DHT22;3740;50.700;7.184;2024-02-21T13:05:39;12.60;99.90
7399;DHT22;3740;50.700;7.184;2024-02-21T13:08:06;12.70;99.90
7399;DHT22;3740;50.700;7.184;2024-02-21T13:10:33;12.70;99.90
7399;DHT22;3740;50.700;7.184;2024-02-21T13:13:00;12.70;99.90
7399;DHT22;3740;50.700;7.184;2024-02-21T13:15:25;12.70;99.90
7399;DHT22;3740;50.700;7.184;2024-02-21T13:17:53;12.70;99.90
7399;DHT22;3740;50.700;7.184;2024-02-21T13:20:19;12.70;99.90
7399;DHT22;3740;50.700;7.184;2024-02-21T13:22:45;12.60;99.90
7399;DHT22;3740;50.700;7.184;2024-02-21T13:25:10;12.60;99.90
7399;DHT22;3740;50.700;7.184;2024-02-21T13:27:40;12.60;99.90
7399;DHT22;3740;50.700;7.184;2024-02-21T13:30:06;12.50;99.90
7399;DHT22;3740;50.700;7.184;2024-02-21T13:32:34;12.50;99.90
7399;DHT22;3740;50.700;7.184;2024-02-21T13:34:59;12.40;99.90
7399;DHT22;3740;50.700;7.184;2024-02-21T13:37:27;12.40;99.90
7399;DHT22;3740;50.700;7.184;2024-02-21T13:39:52;12.30;99.90
7399;DHT22;3740;50.700;7.184;2024-02-21T13:42:19;12.20;99.90
7399;DHT22;3740;50.700;7.184;2024-02-21T13:44:44;12.20;99.90
7399;DHT22;3740;50.700;7.184;2024-02-21T13:47:12;12.10;99.90
7399;DHT22;3740;50.700;7.184;2024-02-21T13:49:39;12.00;99.90
7399;DHT22;3740;50.700;7.184;2024-02-21T13:52:05;11.90;99.90
7399;DHT22;3740;50.700;7.184;2024-02-21T13:54:30;11.90;99.90
7399;DHT22;3740;50.700;7.184;2024-02-21T13:56:56;11.90;99.90
7399;DHT22;3740;50.700;7.184;2024-02-21T13:59:21;11.90;99.90
7399;DHT22;3740;50.700;7.184;2024-02-21T14:01:47;11.80;99.90
7399;DHT22;3740;50.700;7.184;2024-02-21T14:04:12;11.80;99.90
7399;DHT22;3740;50.700;7.184;2024-02-21T14:06:38;11.80;99.90
7399;DHT22;3740;50.700;7.184;2024-02-21T14:09:09;11.80;99.90
7399;DHT22;3740;50.700;7.184;2024-02-21T14:11:34;11.80;99.90
7399;DHT22;3740;50.700;7.184;2024-02-21T14:14:00;11.80;99.90
7399;DHT22;3740;50.700;7.184;2024-02-21T14:16:26;11.80;99.90
7399;DHT22;3740;50.700;7.184;2024-02-21T14:18:51;11.70;99.90
7399;DHT22;3740;50.700;7.184;2024-02-21T14:21:17;11.80;99.90
7399;DHT22;3740;50.700;7.184;2024-02-21T14:23:42;11.80;99.90
7399;DHT22;3740;50.700;7.184;2024-02-21T14:26:08;11.90;99.90
7399;DHT22;3740;50.700;7.184;2024-02-21T14:28:34;11.90;99.90
7399;DHT22;3740;50.700;7.184;2024-02-21T14:31:00;11.90;99.90
7399;DHT22;3740;50.700;7.184;2024-02-21T14:33:27;11.90;99.90
7399;DHT22;3740;50.700;7.184;2024-02-21T14:35:52;11.80;99.90
7399;DHT22;3740;50.700;7.184;2024-02-21T14:38:19;11.80;99.90
7399;DHT22;3740;50.700;7.184;2024-02-21T14:40:45;11.80;99.90
7399;DHT22;3740;50.700;7.184;2024-02-21T14:43:10;11.80;99.90
7399;DHT22;3740;50.700;7.184;2024-02-21T14:45:36;11.90;99.90
7399;DHT22;3740;50.700;7.184;2024-02-21T14:48:03;11.90;99.90
7399;DHT22;3740;50.700;7.184;2024-02-21T14:50:29;11.90;99.90
7399;DHT22;3740;50.700;7.184;2024-02-21T14:52:55;11.90;99.90
7399;DHT22;3740;50.700;7.184;2024-02-21T14:55:20;11.90;99.90
7399;DHT22;3740;50.700;7.184;2024-02-21T14:57:46;12.00;99.90
7399;DHT22;3740;50.700;7.184;2024-02-21T15:00:12;12.10;99.90
7399;DHT22;3740;50.700;7.184;2024-02-21T15:02:38;12.10;99.90
7399;DHT22;3740;50.700;7.184;2024-02-21T15:05:04;12.10;99.90
7399;DHT22;3740;50.700;7.184;2024-02-21T15:07:31;12.10;99.90
7399;DHT22;3740;50.700;7.184;2024-02-21T15:09:57;12.10;99.90
7399;DHT22;3740;50.700;7.184;2024-02-21T15:12:22;12.10;99.90
7399;DHT22;3740;50.700;7.184;2024-02-21T15:14:49;12.00;99.90
7399;DHT22;3740;50.700;7.184;2024-02-21T15:17:14;12.00;99.90
7399;DHT22;3740;50.700;7.184;2024-02-21T15:19:40;12.10;99.90
7399;DHT22;3740;50.700;7.184;2024-02-21T15:22:09;12.10;99.90
7399;DHT22;3740;50.700;7.184;2024-02-21T15:24:39;12.10;99.90
7399;DHT22;3740;50.700;7.184;2024-02-21T15:27:05;12.00;99.90
7399;DHT22;3740;50.700;7.184;2024-02-21T15:29:31;12.00;99.90
7399;DHT22;3740;50.700;7.184;2024-02-21T15:31:57;12.00;99.90
7399;DHT22;3740;50.700;7.184;2024-02-21T15:34:23;12.00;99.90
7399;DHT22;3740;50.700;7.184;2024-02-21T15:36:48;12.00;99.90
7399;DHT22;3740;50.700;7.184;2024-02-21T15:39:14;12.00;99.90
7399;DHT22;3740;50.700;7.184;2024-02-21T15:41:40;11.90;99.90
7399;DHT22;3740;50.700;7.184;2024-02-21T15:44:06;11.90;99.90
7399;DHT22;3740;50.700;7.184;2024-02-21T15:46:32;11.80;99.90
7399;DHT22;3740;50.700;7.184;2024-02-21T15:49:00;11.80;99.90
7399;DHT22;3740;50.700;7.184;2024-02-21T15:51:25;11.80;99.90
7399;DHT22;3740;50.700;7.184;2024-02-21T15:53:51;11.80;99.90
7399;DHT22;3740;50.700;7.184;2024-02-21T15:56:17;11.80;99.90
7399;DHT22;3740;50.700;7.184;2024-02-21T15:58:43;11.70;99.90
7399;DHT22;3740;50.700;7.184;2024-02-21T16:01:09;11.70;99.90
7399;DHT22;3740;50.700;7.184;2024-02-21T16:03:37;11.70;99.90
7399;DHT22;3740;50.700;7.184;2024-02-21T16:06:03;11.70;99.90